sensor_id;sensor_type;location;lat;lon;timestamp;P1;durP1;ratioP1;P2;durP2;ratioP2
20870;SDS011;10595;51.218;3.452;2023-04-01T00:02:17;24.23;;;5.10;;
20870;SDS011;10595;51.218;3.452;2023-04-01T00:04:43;22.70;;;5.13;;
20870;SDS011;10595;51.218;3.452;2023-04-01T00:07:09;21.67;;;4.40;;
20870;SDS011;10595;51.218;3.452;2023-04-01T00:09:35;17.10;;;4.77;;
20870;SDS011;10595;51.218;3.452;2023-04-01T00:12:02;20.80;;;4.73;;
20870;SDS011;10595;51.218;3.452;2023-04-01T00:14:28;23.87;;;5.20;;
20870;SDS011;10595;51.218;3.452;2023-04-01T00:16:54;22.33;;;5.23;;
20870;SDS011;10595;51.218;3.452;2023-04-01T00:19:21;21.83;;;5.37;;
20870;SDS011;10595;51.218;3.452;2023-04-01T00:21:47;24.10;;;5.50;;
20870;SDS011;10595;51.218;3.452;2023-04-01T00:24:13;16.13;;;5.27;;
20870;SDS011;10595;51.218;3.452;2023-04-01T00:26:39;19.47;;;5.43;;
20870;SDS011;10595;51.218;3.452;2023-04-01T00:29:07;18.20;;;6.70;;
20870;SDS011;10595;51.218;3.452;2023-04-01T00:31:33;20.97;;;6.23;;
20870;SDS011;10595;51.218;3.452;2023-04-01T00:33:59;23.27;;;5.90;;
20870;SDS011;10595;51.218;3.452;2023-04-01T00:36:25;22.47;;;6.37;;
20870;SDS011;10595;51.218;3.452;2023-04-01T00:38:51;24.53;;;5.73;;
20870;SDS011;10595;51.218;3.452;2023-04-01T00:41:17;20.07;;;5.23;;
20870;SDS011;10595;51.218;3.452;2023-04-01T00:43:45;19.00;;;5.83;;
20870;SDS011;10595;51.218;3.452;2023-04-01T00:46:11;17.13;;;4.97;;
20870;SDS011;10595;51.218;3.452;2023-04-01T00:48:45;25.37;;;5.60;;
20870;SDS011;10595;51.218;3.452;2023-04-01T00:51:33;21.10;;;4.93;;
20870;SDS011;10595;51.218;3.452;2023-04-01T00:54:00;24.53;;;5.40;;
20870;SDS011;10595;51.218;3.452;2023-04-01T00:56:32;20.83;;;5.07;;
20870;SDS011;10595;51.218;3.452;2023-04-01T00:59:00;21.07;;;5.77;;
20870;SDS011;10595;51.218;3.452;2023-04-01T01:01:27;20.93;;;6.50;;
20870;SDS011;10595;51.218;3.452;2023-04-01T01:03:55;22.13;;;5.20;;
20870;SDS011;10595;51.218;3.452;2023-04-01T01:10:09;22.97;;;4.87;;
20870;SDS011;10595;51.218;3.452;2023-04-01T01:17:28;18.77;;;4.87;;
20870;SDS011;10595;51.218;3.452;2023-04-01T01:20:10;15.80;;;4.43;;
20870;SDS011;10595;51.218;3.452;2023-04-01T01:25:30;13.37;;;4.10;;
20870;SDS011;10595;51.218;3.452;2023-04-01T01:30:43;12.90;;;4.03;;
20870;SDS011;10595;51.218;3.452;2023-04-01T01:33:21;10.37;;;3.57;;
20870;SDS011;10595;51.218;3.452;2023-04-01T01:35:51;8.97;;;3.73;;
20870;SDS011;10595;51.218;3.452;2023-04-01T01:38:27;15.83;;;4.47;;
20870;SDS011;10595;51.218;3.452;2023-04-01T01:40:54;16.17;;;4.53;;
20870;SDS011;10595;51.218;3.452;2023-04-01T01:43:24;15.83;;;5.30;;
20870;SDS011;10595;51.218;3.452;2023-04-01T01:45:52;14.57;;;4.93;;
20870;SDS011;10595;51.218;3.452;2023-04-01T01:48:20;17.40;;;5.17;;
20870;SDS011;10595;51.218;3.452;2023-04-01T01:50:46;11.60;;;5.00;;
20870;SDS011;10595;51.218;3.452;2023-04-01T01:53:13;15.00;;;5.90;;
20870;SDS011;10595;51.218;3.452;2023-04-01T01:55:41;21.97;;;6.50;;
20870;SDS011;10595;51.218;3.452;2023-04-01T01:58:09;17.63;;;5.80;;
20870;SDS011;10595;51.218;3.452;2023-04-01T02:00:36;14.17;;;6.07;;
20870;SDS011;10595;51.218;3.452;2023-04-01T02:03:03;20.60;;;6.70;;
20870;SDS011;10595;51.218;3.452;2023-04-01T02:05:30;17.07;;;7.20;;
20870;SDS011;10595;51.218;3.452;2023-04-01T02:10:26;16.17;;;6.50;;
20870;SDS011;10595;51.218;3.452;2023-04-01T02:12:56;24.80;;;6.53;;
20870;SDS011;10595;51.218;3.452;2023-04-01T02:15:23;23.20;;;6.57;;
20870;SDS011;10595;51.218;3.452;2023-04-01T02:17:50;18.03;;;6.53;;
20870;SDS011;10595;51.218;3.452;2023-04-01T02:20:21;18.40;;;5.73;;
20870;SDS011;10595;51.218;3.452;2023-04-01T02:22:49;11.67;;;4.90;;
20870;SDS011;10595;51.218;3.452;2023-04-01T02:25:18;10.13;;;5.07;;
20870;SDS011;10595;51.218;3.452;2023-04-01T02:27:46;17.13;;;5.77;;
20870;SDS011;10595;51.218;3.452;2023-04-01T02:30:12;14.00;;;5.40;;
20870;SDS011;10595;51.218;3.452;2023-04-01T02:32:39;10.77;;;5.67;;
20870;SDS011;10595;51.218;3.452;2023-04-01T02:35:09;16.73;;;5.63;;
20870;SDS011;10595;51.218;3.452;2023-04-01T02:37:35;17.17;;;6.07;;
20870;SDS011;10595;51.218;3.452;2023-04-01T02:40:02;13.53;;;6.43;;
20870;SDS011;10595;51.218;3.452;2023-04-01T02:42:31;15.33;;;6.50;;
20870;SDS011;10595;51.218;3.452;2023-04-01T02:44:57;16.40;;;7.13;;
20870;SDS011;10595;51.218;3.452;2023-04-01T02:47:23;18.60;;;7.33;;
20870;SDS011;10595;51.218;3.452;2023-04-01T02:49:49;16.17;;;6.27;;
20870;SDS011;10595;51.218;3.452;2023-04-01T02:52:15;21.97;;;7.50;;
20870;SDS011;10595;51.218;3.452;2023-04-01T02:54:41;16.50;;;7.40;;
20870;SDS011;10595;51.218;3.452;2023-04-01T02:57:07;22.20;;;7.10;;
20870;SDS011;10595;51.218;3.452;2023-04-01T02:59:33;13.50;;;6.27;;
20870;SDS011;10595;51.218;3.452;2023-04-01T03:01:59;12.87;;;5.30;;
20870;SDS011;10595;51.218;3.452;2023-04-01T03:04:25;18.70;;;5.77;;
20870;SDS011;10595;51.218;3.452;2023-04-01T03:06:51;9.67;;;4.33;;
20870;SDS011;10595;51.218;3.452;2023-04-01T03:09:17;16.20;;;5.17;;
20870;SDS011;10595;51.218;3.452;2023-04-01T03:11:43;11.93;;;5.40;;
20870;SDS011;10595;51.218;3.452;2023-04-01T03:14:09;9.13;;;5.87;;
20870;SDS011;10595;51.218;3.452;2023-04-01T03:16:35;9.30;;;5.40;;
20870;SDS011;10595;51.218;3.452;2023-04-01T03:19:01;11.03;;;5.83;;
20870;SDS011;10595;51.218;3.452;2023-04-01T03:21:27;14.47;;;7.03;;
20870;SDS011;10595;51.218;3.452;2023-04-01T03:23:54;12.47;;;7.03;;
20870;SDS011;10595;51.218;3.452;2023-04-01T03:26:20;13.23;;;6.80;;
20870;SDS011;10595;51.218;3.452;2023-04-01T03:28:46;14.97;;;7.43;;
20870;SDS011;10595;51.218;3.452;2023-04-01T03:31:12;11.30;;;6.43;;
20870;SDS011;10595;51.218;3.452;2023-04-01T03:33:39;13.60;;;6.20;;
20870;SDS011;10595;51.218;3.452;2023-04-01T03:36:05;9.30;;;5.67;;
20870;SDS011;10595;51.218;3.452;2023-04-01T03:38:32;11.10;;;5.07;;
20870;SDS011;10595;51.218;3.452;2023-04-01T03:40:58;15.00;;;6.43;;
20870;SDS011;10595;51.218;3.452;2023-04-01T03:43:25;8.00;;;5.57;;
20870;SDS011;10595;51.218;3.452;2023-04-01T03:45:51;14.57;;;5.77;;
20870;SDS011;10595;51.218;3.452;2023-04-01T03:48:17;13.27;;;5.60;;
20870;SDS011;10595;51.218;3.452;2023-04-01T03:50:44;16.63;;;6.37;;
20870;SDS011;10595;51.218;3.452;2023-04-01T03:53:10;16.43;;;6.53;;
20870;SDS011;10595;51.218;3.452;2023-04-01T03:55:36;12.80;;;6.60;;
20870;SDS011;10595;51.218;3.452;2023-04-01T03:58:03;13.83;;;6.87;;
20870;SDS011;10595;51.218;3.452;2023-04-01T04:00:29;11.80;;;6.83;;
20870;SDS011;10595;51.218;3.452;2023-04-01T04:02:56;10.57;;;6.77;;
20870;SDS011;10595;51.218;3.452;2023-04-01T04:05:22;10.83;;;6.10;;
20870;SDS011;10595;51.218;3.452;2023-04-01T04:07:49;11.93;;;6.60;;
20870;SDS011;10595;51.218;3.452;2023-04-01T04:10:15;9.93;;;5.07;;
20870;SDS011;10595;51.218;3.452;2023-04-01T04:12:41;8.17;;;4.63;;
20870;SDS011;10595;51.218;3.452;2023-04-01T04:15:07;10.00;;;5.20;;
20870;SDS011;10595;51.218;3.452;2023-04-01T04:17:33;7.27;;;4.40;;
20870;SDS011;10595;51.218;3.452;2023-04-01T04:20:00;13.60;;;6.37;;
20870;SDS011;10595;51.218;3.452;2023-04-01T04:22:26;12.90;;;5.70;;
20870;SDS011;10595;51.218;3.452;2023-04-01T04:24:52;10.33;;;5.07;;
20870;SDS011;10595;51.218;3.452;2023-04-01T04:27:18;7.73;;;4.70;;
20870;SDS011;10595;51.218;3.452;2023-04-01T04:29:44;10.83;;;5.70;;
20870;SDS011;10595;51.218;3.452;2023-04-01T04:32:11;9.50;;;4.77;;
20870;SDS011;10595;51.218;3.452;2023-04-01T04:34:37;9.83;;;4.97;;
20870;SDS011;10595;51.218;3.452;2023-04-01T04:37:03;12.73;;;5.17;;
20870;SDS011;10595;51.218;3.452;2023-04-01T04:39:29;8.53;;;5.27;;
20870;SDS011;10595;51.218;3.452;2023-04-01T04:41:55;11.27;;;5.60;;
20870;SDS011;10595;51.218;3.452;2023-04-01T04:44:21;12.57;;;5.53;;
20870;SDS011;10595;51.218;3.452;2023-04-01T04:46:47;10.90;;;5.07;;
20870;SDS011;10595;51.218;3.452;2023-04-01T04:49:13;12.57;;;5.57;;
20870;SDS011;10595;51.218;3.452;2023-04-01T04:51:39;11.97;;;5.57;;
20870;SDS011;10595;51.218;3.452;2023-04-01T04:54:05;9.00;;;4.47;;
20870;SDS011;10595;51.218;3.452;2023-04-01T04:56:32;12.73;;;5.53;;
20870;SDS011;10595;51.218;3.452;2023-04-01T04:58:58;11.43;;;5.20;;
20870;SDS011;10595;51.218;3.452;2023-04-01T05:01:24;10.20;;;4.57;;
20870;SDS011;10595;51.218;3.452;2023-04-01T05:03:51;12.13;;;5.53;;
20870;SDS011;10595;51.218;3.452;2023-04-01T05:06:17;6.30;;;3.70;;
20870;SDS011;10595;51.218;3.452;2023-04-01T05:08:44;11.67;;;4.33;;
20870;SDS011;10595;51.218;3.452;2023-04-01T05:11:14;9.53;;;4.20;;
20870;SDS011;10595;51.218;3.452;2023-04-01T05:13:41;9.60;;;4.40;;
20870;SDS011;10595;51.218;3.452;2023-04-01T05:16:08;7.03;;;4.40;;
20870;SDS011;10595;51.218;3.452;2023-04-01T05:18:34;9.63;;;4.30;;
20870;SDS011;10595;51.218;3.452;2023-04-01T05:21:00;7.83;;;3.47;;
20870;SDS011;10595;51.218;3.452;2023-04-01T05:23:26;8.90;;;3.60;;
20870;SDS011;10595;51.218;3.452;2023-04-01T05:25:52;9.60;;;3.30;;
20870;SDS011;10595;51.218;3.452;2023-04-01T05:28:18;9.77;;;2.97;;
20870;SDS011;10595;51.218;3.452;2023-04-01T05:30:45;7.93;;;3.50;;
20870;SDS011;10595;51.218;3.452;2023-04-01T05:33:11;8.87;;;3.90;;
20870;SDS011;10595;51.218;3.452;2023-04-01T05:35:38;10.20;;;3.93;;
20870;SDS011;10595;51.218;3.452;2023-04-01T05:38:04;8.33;;;4.20;;
20870;SDS011;10595;51.218;3.452;2023-04-01T05:40:31;6.90;;;4.30;;
20870;SDS011;10595;51.218;3.452;2023-04-01T05:42:57;7.03;;;3.53;;
20870;SDS011;10595;51.218;3.452;2023-04-01T05:45:23;5.20;;;3.10;;
20870;SDS011;10595;51.218;3.452;2023-04-01T05:47:50;11.90;;;3.13;;
20870;SDS011;10595;51.218;3.452;2023-04-01T05:50:16;6.07;;;2.83;;
20870;SDS011;10595;51.218;3.452;2023-04-01T05:52:42;8.50;;;3.03;;
20870;SDS011;10595;51.218;3.452;2023-04-01T05:55:09;9.77;;;3.70;;
20870;SDS011;10595;51.218;3.452;2023-04-01T05:57:35;7.63;;;3.83;;
20870;SDS011;10595;51.218;3.452;2023-04-01T06:00:02;8.43;;;3.00;;
20870;SDS011;10595;51.218;3.452;2023-04-01T06:02:28;6.47;;;2.30;;
20870;SDS011;10595;51.218;3.452;2023-04-01T06:04:58;7.07;;;2.60;;
20870;SDS011;10595;51.218;3.452;2023-04-01T06:07:27;6.57;;;2.73;;
20870;SDS011;10595;51.218;3.452;2023-04-01T06:09:54;5.43;;;2.47;;
20870;SDS011;10595;51.218;3.452;2023-04-01T06:12:36;2.77;;;2.10;;
20870;SDS011;10595;51.218;3.452;2023-04-01T06:20:04;4.23;;;1.60;;
20870;SDS011;10595;51.218;3.452;2023-04-01T06:35:50;3.47;;;2.07;;
20870;SDS011;10595;51.218;3.452;2023-04-01T06:51:01;2.77;;;1.70;;
20870;SDS011;10595;51.218;3.452;2023-04-01T06:56:19;4.77;;;2.40;;
20870;SDS011;10595;51.218;3.452;2023-04-01T07:01:26;8.73;;;2.77;;
20870;SDS011;10595;51.218;3.452;2023-04-01T07:03:55;7.43;;;3.00;;
20870;SDS011;10595;51.218;3.452;2023-04-01T07:06:35;6.93;;;2.70;;
20870;SDS011;10595;51.218;3.452;2023-04-01T07:09:11;5.03;;;3.00;;
20870;SDS011;10595;51.218;3.452;2023-04-01T07:11:38;5.53;;;2.67;;
20870;SDS011;10595;51.218;3.452;2023-04-01T07:14:13;6.87;;;3.03;;
20870;SDS011;10595;51.218;3.452;2023-04-01T07:16:51;6.13;;;2.60;;
20870;SDS011;10595;51.218;3.452;2023-04-01T07:22:04;6.13;;;2.60;;
20870;SDS011;10595;51.218;3.452;2023-04-01T07:24:35;6.90;;;2.30;;
20870;SDS011;10595;51.218;3.452;2023-04-01T07:27:02;5.27;;;2.50;;
20870;SDS011;10595;51.218;3.452;2023-04-01T07:29:28;11.97;;;2.90;;
20870;SDS011;10595;51.218;3.452;2023-04-01T07:34:31;6.50;;;2.40;;
20870;SDS011;10595;51.218;3.452;2023-04-01T07:37:04;6.73;;;2.60;;
20870;SDS011;10595;51.218;3.452;2023-04-01T07:42:38;7.60;;;2.63;;
20870;SDS011;10595;51.218;3.452;2023-04-01T07:45:15;8.07;;;2.60;;
20870;SDS011;10595;51.218;3.452;2023-04-01T07:48:00;7.90;;;3.73;;
20870;SDS011;10595;51.218;3.452;2023-04-01T07:50:35;5.13;;;2.57;;
20870;SDS011;10595;51.218;3.452;2023-04-01T07:53:13;8.73;;;3.30;;
20870;SDS011;10595;51.218;3.452;2023-04-01T07:55:45;8.63;;;2.93;;
20870;SDS011;10595;51.218;3.452;2023-04-01T07:58:17;6.03;;;3.63;;
20870;SDS011;10595;51.218;3.452;2023-04-01T08:00:59;7.47;;;3.70;;
20870;SDS011;10595;51.218;3.452;2023-04-01T08:03:35;12.40;;;4.10;;
20870;SDS011;10595;51.218;3.452;2023-04-01T08:06:06;12.73;;;3.73;;
20870;SDS011;10595;51.218;3.452;2023-04-01T08:13:39;6.57;;;2.77;;
20870;SDS011;10595;51.218;3.452;2023-04-01T08:21:21;8.00;;;2.27;;
20870;SDS011;10595;51.218;3.452;2023-04-01T08:23:48;4.20;;;2.30;;
20870;SDS011;10595;51.218;3.452;2023-04-01T08:28:48;6.23;;;2.60;;
20870;SDS011;10595;51.218;3.452;2023-04-01T08:33:56;5.03;;;1.73;;
20870;SDS011;10595;51.218;3.452;2023-04-01T08:36:29;5.87;;;1.70;;
20870;SDS011;10595;51.218;3.452;2023-04-01T08:39:04;8.33;;;2.30;;
20870;SDS011;10595;51.218;3.452;2023-04-01T08:49:51;9.03;;;2.00;;
20870;SDS011;10595;51.218;3.452;2023-04-01T08:57:15;3.13;;;1.53;;
20870;SDS011;10595;51.218;3.452;2023-04-01T09:02:30;7.67;;;1.70;;
20870;SDS011;10595;51.218;3.452;2023-04-01T09:34:23;2.40;;;1.10;;
20870;SDS011;10595;51.218;3.452;2023-04-01T09:39:34;2.60;;;1.00;;
20870;SDS011;10595;51.218;3.452;2023-04-01T09:44:42;5.63;;;1.60;;
20870;SDS011;10595;51.218;3.452;2023-04-01T09:55:04;7.30;;;1.83;;
20870;SDS011;10595;51.218;3.452;2023-04-01T10:08:47;5.47;;;2.27;;
20870;SDS011;10595;51.218;3.452;2023-04-01T10:16:41;5.77;;;1.60;;
20870;SDS011;10595;51.218;3.452;2023-04-01T10:19:26;4.73;;;1.40;;
20870;SDS011;10595;51.218;3.452;2023-04-01T10:38:28;8.07;;;2.50;;
20870;SDS011;10595;51.218;3.452;2023-04-01T10:51:34;6.67;;;2.50;;
20870;SDS011;10595;51.218;3.452;2023-04-01T11:07:24;10.30;;;2.93;;
20870;SDS011;10595;51.218;3.452;2023-04-01T11:17:38;11.80;;;3.00;;
20870;SDS011;10595;51.218;3.452;2023-04-01T11:25:19;12.13;;;3.00;;
20870;SDS011;10595;51.218;3.452;2023-04-01T11:53:00;4.50;;;1.80;;
20870;SDS011;10595;51.218;3.452;2023-04-01T11:55:31;3.70;;;1.13;;
20870;SDS011;10595;51.218;3.452;2023-04-01T12:00:43;5.40;;;1.60;;
20870;SDS011;10595;51.218;3.452;2023-04-01T12:06:14;4.37;;;1.40;;
20870;SDS011;10595;51.218;3.452;2023-04-01T12:18:50;4.67;;;1.20;;
20870;SDS011;10595;51.218;3.452;2023-04-01T12:21:28;4.20;;;1.30;;
20870;SDS011;10595;51.218;3.452;2023-04-01T12:58:54;5.27;;;1.50;;
20870;SDS011;10595;51.218;3.452;2023-04-01T13:04:28;1.57;;;0.60;;
20870;SDS011;10595;51.218;3.452;2023-04-01T13:14:54;4.13;;;0.80;;
20870;SDS011;10595;51.218;3.452;2023-04-01T13:17:29;4.07;;;1.00;;
20870;SDS011;10595;51.218;3.452;2023-04-01T13:25:25;4.07;;;1.10;;
20870;SDS011;10595;51.218;3.452;2023-04-01T13:28:06;4.00;;;0.80;;
20870;SDS011;10595;51.218;3.452;2023-04-01T13:30:37;5.80;;;1.17;;
20870;SDS011;10595;51.218;3.452;2023-04-01T13:33:16;3.83;;;1.17;;
20870;SDS011;10595;51.218;3.452;2023-04-01T13:41:17;5.47;;;1.40;;
20870;SDS011;10595;51.218;3.452;2023-04-01T13:43:49;4.77;;;1.53;;
20870;SDS011;10595;51.218;3.452;2023-04-01T13:56:17;4.00;;;1.20;;
20870;SDS011;10595;51.218;3.452;2023-04-01T14:06:34;3.07;;;1.10;;
20870;SDS011;10595;51.218;3.452;2023-04-01T14:17:01;5.97;;;1.30;;
20870;SDS011;10595;51.218;3.452;2023-04-01T14:22:17;5.33;;;1.40;;
20870;SDS011;10595;51.218;3.452;2023-04-01T14:27:38;3.07;;;1.43;;
20870;SDS011;10595;51.218;3.452;2023-04-01T14:32:54;10.90;;;1.80;;
20870;SDS011;10595;51.218;3.452;2023-04-01T14:35:33;7.07;;;1.50;;
20870;SDS011;10595;51.218;3.452;2023-04-01T14:40:59;7.40;;;1.40;;
20870;SDS011;10595;51.218;3.452;2023-04-01T14:43:44;2.90;;;1.50;;
20870;SDS011;10595;51.218;3.452;2023-04-01T14:48:52;4.33;;;1.40;;
20870;SDS011;10595;51.218;3.452;2023-04-01T14:51:35;6.33;;;1.40;;
20870;SDS011;10595;51.218;3.452;2023-04-01T14:54:17;4.50;;;1.10;;
20870;SDS011;10595;51.218;3.452;2023-04-01T14:56:51;2.77;;;1.10;;
20870;SDS011;10595;51.218;3.452;2023-04-01T14:59:27;3.13;;;1.10;;
20870;SDS011;10595;51.218;3.452;2023-04-01T15:01:59;5.73;;;1.80;;
20870;SDS011;10595;51.218;3.452;2023-04-01T15:14:50;8.30;;;1.60;;
20870;SDS011;10595;51.218;3.452;2023-04-01T15:25:29;5.53;;;1.47;;
20870;SDS011;10595;51.218;3.452;2023-04-01T15:28:08;3.93;;;1.10;;
20870;SDS011;10595;51.218;3.452;2023-04-01T15:33:24;5.40;;;1.50;;
20870;SDS011;10595;51.218;3.452;2023-04-01T15:36:15;8.00;;;2.13;;
20870;SDS011;10595;51.218;3.452;2023-04-01T15:41:19;3.43;;;1.30;;
20870;SDS011;10595;51.218;3.452;2023-04-01T15:43:49;3.87;;;1.30;;
20870;SDS011;10595;51.218;3.452;2023-04-01T15:51:47;5.60;;;1.93;;
20870;SDS011;10595;51.218;3.452;2023-04-01T15:54:24;6.73;;;1.60;;
20870;SDS011;10595;51.218;3.452;2023-04-01T16:14:28;6.17;;;2.13;;
20870;SDS011;10595;51.218;3.452;2023-04-01T16:22:25;8.53;;;2.57;;
20870;SDS011;10595;51.218;3.452;2023-04-01T16:24:59;10.00;;;3.03;;
20870;SDS011;10595;51.218;3.452;2023-04-01T16:35:49;7.37;;;3.43;;
20870;SDS011;10595;51.218;3.452;2023-04-01T16:43:41;4.37;;;1.90;;
20870;SDS011;10595;51.218;3.452;2023-04-01T16:48:59;6.30;;;2.27;;
20870;SDS011;10595;51.218;3.452;2023-04-01T16:51:33;7.23;;;2.93;;
20870;SDS011;10595;51.218;3.452;2023-04-01T16:54:05;7.00;;;2.83;;
20870;SDS011;10595;51.218;3.452;2023-04-01T16:56:39;11.80;;;3.57;;
20870;SDS011;10595;51.218;3.452;2023-04-01T16:59:33;10.63;;;3.47;;
20870;SDS011;10595;51.218;3.452;2023-04-01T17:02:04;7.47;;;3.77;;
20870;SDS011;10595;51.218;3.452;2023-04-01T17:04:45;9.73;;;3.83;;
20870;SDS011;10595;51.218;3.452;2023-04-01T17:08:04;7.17;;;3.73;;
20870;SDS011;10595;51.218;3.452;2023-04-01T17:25:10;14.53;;;5.03;;
20870;SDS011;10595;51.218;3.452;2023-04-01T17:30:29;22.53;;;7.07;;
20870;SDS011;10595;51.218;3.452;2023-04-01T17:40:29;14.07;;;4.87;;
20870;SDS011;10595;51.218;3.452;2023-04-01T17:43:07;12.60;;;5.03;;
20870;SDS011;10595;51.218;3.452;2023-04-01T17:48:21;16.97;;;5.63;;
20870;SDS011;10595;51.218;3.452;2023-04-01T17:56:02;19.30;;;6.43;;
20870;SDS011;10595;51.218;3.452;2023-04-01T18:01:23;27.23;;;6.70;;
20870;SDS011;10595;51.218;3.452;2023-04-01T18:03:57;22.07;;;6.77;;
20870;SDS011;10595;51.218;3.452;2023-04-01T18:17:12;19.30;;;7.40;;
20870;SDS011;10595;51.218;3.452;2023-04-01T18:27:24;26.27;;;9.13;;
20870;SDS011;10595;51.218;3.452;2023-04-01T18:29:55;24.83;;;9.40;;
20870;SDS011;10595;51.218;3.452;2023-04-01T18:34:55;31.97;;;10.50;;
20870;SDS011;10595;51.218;3.452;2023-04-01T18:38:24;17.90;;;7.50;;
20870;SDS011;10595;51.218;3.452;2023-04-01T18:40:29;32.50;;;9.10;;
20870;SDS011;10595;51.218;3.452;2023-04-01T18:45:54;21.83;;;7.60;;
20870;SDS011;10595;51.218;3.452;2023-04-01T18:50:58;23.73;;;7.17;;
20870;SDS011;10595;51.218;3.452;2023-04-01T18:53:31;26.77;;;7.83;;
20870;SDS011;10595;51.218;3.452;2023-04-01T18:56:02;20.80;;;6.33;;
20870;SDS011;10595;51.218;3.452;2023-04-01T18:58:33;19.87;;;7.60;;
20870;SDS011;10595;51.218;3.452;2023-04-01T19:01:14;29.33;;;7.23;;
20870;SDS011;10595;51.218;3.452;2023-04-01T19:06:17;22.63;;;7.50;;
20870;SDS011;10595;51.218;3.452;2023-04-01T19:08:45;29.33;;;7.47;;
20870;SDS011;10595;51.218;3.452;2023-04-01T19:16:43;24.10;;;6.93;;
20870;SDS011;10595;51.218;3.452;2023-04-01T19:19:47;25.87;;;6.97;;
20870;SDS011;10595;51.218;3.452;2023-04-01T19:21:53;28.33;;;7.63;;
20870;SDS011;10595;51.218;3.452;2023-04-01T19:27:10;26.57;;;7.60;;
20870;SDS011;10595;51.218;3.452;2023-04-01T19:34:54;27.97;;;6.83;;
20870;SDS011;10595;51.218;3.452;2023-04-01T19:37:39;22.47;;;6.90;;
20870;SDS011;10595;51.218;3.452;2023-04-01T19:42:53;30.50;;;8.33;;
20870;SDS011;10595;51.218;3.452;2023-04-01T19:50:42;28.60;;;8.30;;
20870;SDS011;10595;51.218;3.452;2023-04-01T19:53:34;21.90;;;8.57;;
20870;SDS011;10595;51.218;3.452;2023-04-01T20:01:14;28.40;;;9.40;;
20870;SDS011;10595;51.218;3.452;2023-04-01T20:08:54;29.17;;;11.00;;
20870;SDS011;10595;51.218;3.452;2023-04-01T20:14:04;33.27;;;11.60;;
20870;SDS011;10595;51.218;3.452;2023-04-01T20:16:58;29.83;;;10.73;;
20870;SDS011;10595;51.218;3.452;2023-04-01T20:19:28;41.60;;;11.63;;
20870;SDS011;10595;51.218;3.452;2023-04-01T20:21:56;43.67;;;11.00;;
20870;SDS011;10595;51.218;3.452;2023-04-01T20:24:34;30.83;;;10.07;;
20870;SDS011;10595;51.218;3.452;2023-04-01T20:29:35;37.07;;;11.20;;
20870;SDS011;10595;51.218;3.452;2023-04-01T20:50:28;36.40;;;12.63;;
20870;SDS011;10595;51.218;3.452;2023-04-01T20:53:15;32.23;;;12.10;;
20870;SDS011;10595;51.218;3.452;2023-04-01T21:00:58;30.70;;;12.83;;
20870;SDS011;10595;51.218;3.452;2023-04-01T21:03:29;29.80;;;12.30;;
20870;SDS011;10595;51.218;3.452;2023-04-01T21:16:33;39.07;;;12.97;;
20870;SDS011;10595;51.218;3.452;2023-04-01T21:21:39;29.63;;;11.67;;
20870;SDS011;10595;51.218;3.452;2023-04-01T21:27:01;37.63;;;12.67;;
20870;SDS011;10595;51.218;3.452;2023-04-01T21:32:15;44.60;;;12.00;;
20870;SDS011;10595;51.218;3.452;2023-04-01T21:34:58;35.17;;;12.70;;
20870;SDS011;10595;51.218;3.452;2023-04-01T21:42:56;33.93;;;11.93;;
20870;SDS011;10595;51.218;3.452;2023-04-01T21:50:47;40.77;;;10.77;;
20870;SDS011;10595;51.218;3.452;2023-04-01T22:04:40;27.10;;;11.00;;
20870;SDS011;10595;51.218;3.452;2023-04-01T22:07:31;29.23;;;11.13;;
20870;SDS011;10595;51.218;3.452;2023-04-01T22:10:09;32.83;;;11.27;;
20870;SDS011;10595;51.218;3.452;2023-04-01T22:12:42;29.10;;;10.40;;
20870;SDS011;10595;51.218;3.452;2023-04-01T22:22:52;35.77;;;10.80;;
20870;SDS011;10595;51.218;3.452;2023-04-01T22:25:21;25.47;;;11.40;;
20870;SDS011;10595;51.218;3.452;2023-04-01T22:28:01;24.03;;;10.10;;
20870;SDS011;10595;51.218;3.452;2023-04-01T22:30:39;27.67;;;11.37;;
20870;SDS011;10595;51.218;3.452;2023-04-01T22:33:18;29.03;;;10.53;;
20870;SDS011;10595;51.218;3.452;2023-04-01T22:41:08;25.90;;;11.20;;
20870;SDS011;10595;51.218;3.452;2023-04-01T22:43:39;21.93;;;10.17;;
20870;SDS011;10595;51.218;3.452;2023-04-01T22:46:08;32.37;;;11.13;;
20870;SDS011;10595;51.218;3.452;2023-04-01T22:51:20;34.20;;;11.90;;
20870;SDS011;10595;51.218;3.452;2023-04-01T22:56:37;35.20;;;11.90;;
20870;SDS011;10595;51.218;3.452;2023-04-01T23:01:32;26.50;;;12.07;;
20870;SDS011;10595;51.218;3.452;2023-04-01T23:04:03;26.53;;;11.30;;
20870;SDS011;10595;51.218;3.452;2023-04-01T23:06:33;35.57;;;12.93;;
20870;SDS011;10595;51.218;3.452;2023-04-01T23:09:08;29.87;;;11.90;;
20870;SDS011;10595;51.218;3.452;2023-04-01T23:16:36;28.03;;;12.60;;
20870;SDS011;10595;51.218;3.452;2023-04-01T23:19:13;38.47;;;15.17;;
20870;SDS011;10595;51.218;3.452;2023-04-01T23:21:43;31.20;;;12.73;;
20870;SDS011;10595;51.218;3.452;2023-04-01T23:26:56;25.93;;;13.20;;
20870;SDS011;10595;51.218;3.452;2023-04-01T23:29:25;27.40;;;13.93;;
20870;SDS011;10595;51.218;3.452;2023-04-01T23:31:58;29.30;;;13.97;;
20870;SDS011;10595;51.218;3.452;2023-04-01T23:36:55;34.30;;;13.57;;
20870;SDS011;10595;51.218;3.452;2023-04-01T23:39:35;27.87;;;15.23;;
20870;SDS011;10595;51.218;3.452;2023-04-01T23:42:03;32.67;;;17.27;;
20870;SDS011;10595;51.218;3.452;2023-04-01T23:44:30;33.23;;;17.23;;
20870;SDS011;10595;51.218;3.452;2023-04-01T23:46:57;31.73;;;15.47;;
20870;SDS011;10595;51.218;3.452;2023-04-01T23:49:25;28.63;;;15.50;;
20870;SDS011;10595;51.218;3.452;2023-04-01T23:52:13;34.23;;;16.43;;
20870;SDS011;10595;51.218;3.452;2023-04-01T23:54:53;37.70;;;16.47;;
20870;SDS011;10595;51.218;3.452;2023-04-01T23:57:26;27.63;;;15.57;;
